sensor_id;sensor_type;location;lat;lon;timestamp;pressure;altitude;pressure_sealevel;temperature;humidity
23303;BME280;11820;48.738;9.092;2023-07-31T00:02:14;96380.41;;;17.88;100.00
23303;BME280;11820;48.738;9.092;2023-07-31T00:04:39;96374.28;;;17.83;100.00
23303;BME280;11820;48.738;9.092;2023-07-31T00:07:05;96375.31;;;17.82;100.00
23303;BME280;11820;48.738;9.092;2023-07-31T00:09:32;96385.56;;;17.83;100.00
23303;BME280;11820;48.738;9.092;2023-07-31T00:11:58;96380.75;;;17.92;100.00
23303;BME280;11820;48.738;9.092;2023-07-31T00:14:23;96380.47;;;17.77;100.00
23303;BME280;11820;48.738;9.092;2023-07-31T00:16:48;96389.94;;;17.66;100.00
23303;BME280;11820;48.738;9.092;2023-07-31T00:19:14;96384.50;;;17.68;100.00
23303;BME280;11820;48.738;9.092;2023-07-31T00:21:39;96380.84;;;17.69;100.00
23303;BME280;11820;48.738;9.092;2023-07-31T00:24:04;96381.91;;;17.56;100.00
23303;BME280;11820;48.738;9.092;2023-07-31T00:26:30;96382.41;;;17.53;100.00
23303;BME280;11820;48.738;9.092;2023-07-31T00:28:55;96380.03;;;17.40;100.00
23303;BME280;11820;48.738;9.092;2023-07-31T00:31:20;96389.25;;;17.31;100.00
23303;BME280;11820;48.738;9.092;2023-07-31T00:33:46;96382.09;;;17.27;100.00
23303;BME280;11820;48.738;9.092;2023-07-31T00:36:11;96386.63;;;17.31;100.00
23303;BME280;11820;48.738;9.092;2023-07-31T00:38:36;96380.41;;;17.21;100.00
23303;BME280;11820;48.738;9.092;2023-07-31T00:41:02;96374.94;;;17.22;100.00
23303;BME280;11820;48.738;9.092;2023-07-31T00:43:27;96376.34;;;17.13;100.00
23303;BME280;11820;48.738;9.092;2023-07-31T00:45:52;96371.44;;;17.17;100.00
23303;BME280;11820;48.738;9.092;2023-07-31T00:48:18;96368.50;;;17.13;100.00
23303;BME280;11820;48.738;9.092;2023-07-31T00:50:43;96363.63;;;17.05;100.00
23303;BME280;11820;48.738;9.092;2023-07-31T00:53:09;96362.94;;;17.10;100.00
23303;BME280;11820;48.738;9.092;2023-07-31T00:55:34;96368.41;;;17.08;100.00
23303;BME280;11820;48.738;9.092;2023-07-31T00:58:00;96368.53;;;17.02;100.00
23303;BME280;11820;48.738;9.092;2023-07-31T01:00:25;96370.91;;;17.03;100.00
23303;BME280;11820;48.738;9.092;2023-07-31T01:02:51;96378.50;;;17.05;100.00
23303;BME280;11820;48.738;9.092;2023-07-31T01:05:19;96372.97;;;17.01;100.00
23303;BME280;11820;48.738;9.092;2023-07-31T01:07:57;96368.53;;;17.02;100.00
23303;BME280;11820;48.738;9.092;2023-07-31T01:10:31;96374.09;;;16.94;100.00
23303;BME280;11820;48.738;9.092;2023-07-31T01:12:59;96368.56;;;16.67;100.00
23303;BME280;11820;48.738;9.092;2023-07-31T01:15:25;96368.22;;;16.75;100.00
23303;BME280;11820;48.738;9.092;2023-07-31T01:17:50;96368.56;;;16.79;100.00
23303;BME280;11820;48.738;9.092;2023-07-31T01:20:24;96360.59;;;16.85;100.00
23303;BME280;11820;48.738;9.092;2023-07-31T01:28:25;96355.16;;;16.87;100.00
23303;BME280;11820;48.738;9.092;2023-07-31T01:30:54;96353.88;;;16.89;100.00
23303;BME280;11820;48.738;9.092;2023-07-31T01:33:20;96347.34;;;16.75;100.00
23303;BME280;11820;48.738;9.092;2023-07-31T01:35:48;96356.75;;;16.76;100.00
23303;BME280;11820;48.738;9.092;2023-07-31T01:38:13;96353.78;;;16.84;100.00
23303;BME280;11820;48.738;9.092;2023-07-31T01:40:41;96348.22;;;16.81;100.00
23303;BME280;11820;48.738;9.092;2023-07-31T01:43:07;96346.66;;;16.68;100.00
23303;BME280;11820;48.738;9.092;2023-07-31T01:45:32;96341.75;;;16.83;100.00
23303;BME280;11820;48.738;9.092;2023-07-31T01:47:58;96343.91;;;16.86;100.00
23303;BME280;11820;48.738;9.092;2023-07-31T01:50:23;96348.09;;;16.99;100.00
23303;BME280;11820;48.738;9.092;2023-07-31T01:52:48;96344.25;;;16.90;100.00
23303;BME280;11820;48.738;9.092;2023-07-31T01:55:14;96337.09;;;16.85;100.00
23303;BME280;11820;48.738;9.092;2023-07-31T01:57:39;96336.44;;;16.78;100.00
23303;BME280;11820;48.738;9.092;2023-07-31T02:00:05;96330.63;;;16.88;100.00
23303;BME280;11820;48.738;9.092;2023-07-31T02:02:31;96333.91;;;16.83;100.00
23303;BME280;11820;48.738;9.092;2023-07-31T02:04:56;96324.72;;;16.69;100.00
23303;BME280;11820;48.738;9.092;2023-07-31T02:07:22;96330.09;;;16.74;100.00
23303;BME280;11820;48.738;9.092;2023-07-31T02:09:47;96319.72;;;16.79;100.00
23303;BME280;11820;48.738;9.092;2023-07-31T02:12:13;96320.66;;;16.73;100.00
23303;BME280;11820;48.738;9.092;2023-07-31T02:14:39;96318.16;;;16.67;100.00
23303;BME280;11820;48.738;9.092;2023-07-31T02:17:05;96318.28;;;16.60;100.00
23303;BME280;11820;48.738;9.092;2023-07-31T02:19:30;96310.81;;;16.52;100.00
23303;BME280;11820;48.738;9.092;2023-07-31T02:21:56;96305.69;;;16.57;100.00
23303;BME280;11820;48.738;9.092;2023-07-31T02:24:21;96308.31;;;16.46;100.00
23303;BME280;11820;48.738;9.092;2023-07-31T02:26:46;96297.50;;;16.42;100.00
23303;BME280;11820;48.738;9.092;2023-07-31T02:29:12;96293.44;;;16.46;100.00
23303;BME280;11820;48.738;9.092;2023-07-31T02:31:37;96295.25;;;16.46;100.00
23303;BME280;11820;48.738;9.092;2023-07-31T02:34:02;96298.22;;;16.38;100.00
23303;BME280;11820;48.738;9.092;2023-07-31T02:36:28;96282.41;;;16.44;100.00
23303;BME280;11820;48.738;9.092;2023-07-31T02:38:53;96285.63;;;16.46;100.00
23303;BME280;11820;48.738;9.092;2023-07-31T02:41:18;96291.28;;;16.43;100.00
23303;BME280;11820;48.738;9.092;2023-07-31T02:43:44;96293.47;;;16.35;100.00
23303;BME280;11820;48.738;9.092;2023-07-31T02:46:09;96286.19;;;16.48;100.00
23303;BME280;11820;48.738;9.092;2023-07-31T02:48:34;96285.94;;;16.38;100.00
23303;BME280;11820;48.738;9.092;2023-07-31T02:51:00;96285.81;;;16.33;100.00
23303;BME280;11820;48.738;9.092;2023-07-31T02:53:25;96289.81;;;16.36;100.00
23303;BME280;11820;48.738;9.092;2023-07-31T02:55:50;96289.38;;;16.39;100.00
23303;BME280;11820;48.738;9.092;2023-07-31T02:58:16;96283.41;;;16.32;100.00
23303;BME280;11820;48.738;9.092;2023-07-31T03:00:44;96273.69;;;16.39;100.00
23303;BME280;11820;48.738;9.092;2023-07-31T03:03:10;96277.66;;;16.41;100.00
23303;BME280;11820;48.738;9.092;2023-07-31T03:05:36;96270.16;;;16.45;100.00
23303;BME280;11820;48.738;9.092;2023-07-31T03:08:01;96283.09;;;16.51;100.00
23303;BME280;11820;48.738;9.092;2023-07-31T03:10:27;96276.41;;;16.32;100.00
23303;BME280;11820;48.738;9.092;2023-07-31T03:12:52;96281.28;;;16.40;100.00
23303;BME280;11820;48.738;9.092;2023-07-31T03:15:17;96285.38;;;16.36;100.00
23303;BME280;11820;48.738;9.092;2023-07-31T03:17:43;96283.91;;;16.40;100.00
23303;BME280;11820;48.738;9.092;2023-07-31T03:20:10;96284.34;;;16.37;100.00
23303;BME280;11820;48.738;9.092;2023-07-31T03:22:35;96284.47;;;16.42;100.00
23303;BME280;11820;48.738;9.092;2023-07-31T03:25:02;96287.06;;;16.42;100.00
23303;BME280;11820;48.738;9.092;2023-07-31T03:27:27;96281.75;;;16.37;100.00
23303;BME280;11820;48.738;9.092;2023-07-31T03:29:53;96280.41;;;16.46;100.00
23303;BME280;11820;48.738;9.092;2023-07-31T03:32:18;96277.66;;;16.41;100.00
23303;BME280;11820;48.738;9.092;2023-07-31T03:34:44;96274.72;;;16.49;100.00
23303;BME280;11820;48.738;9.092;2023-07-31T03:37:09;96274.72;;;16.49;100.00
23303;BME280;11820;48.738;9.092;2023-07-31T03:39:35;96285.16;;;16.49;100.00
23303;BME280;11820;48.738;9.092;2023-07-31T03:42:00;96286.75;;;16.39;100.00
23303;BME280;11820;48.738;9.092;2023-07-31T03:44:25;96293.44;;;16.46;100.00
23303;BME280;11820;48.738;9.092;2023-07-31T03:46:51;96292.53;;;16.52;100.00
23303;BME280;11820;48.738;9.092;2023-07-31T03:49:16;96281.25;;;16.63;100.00
23303;BME280;11820;48.738;9.092;2023-07-31T03:51:42;96288.41;;;16.68;100.00
23303;BME280;11820;48.738;9.092;2023-07-31T03:54:07;96288.16;;;16.69;100.00
23303;BME280;11820;48.738;9.092;2023-07-31T03:56:33;96283.78;;;16.58;100.00
23303;BME280;11820;48.738;9.092;2023-07-31T03:58:58;96288.19;;;16.58;100.00
23303;BME280;11820;48.738;9.092;2023-07-31T04:01:23;96285.25;;;16.66;100.00
23303;BME280;11820;48.738;9.092;2023-07-31T04:03:49;96278.97;;;16.78;100.00
23303;BME280;11820;48.738;9.092;2023-07-31T04:06:14;96290.66;;;16.76;100.00
23303;BME280;11820;48.738;9.092;2023-07-31T04:08:43;96292.72;;;16.74;100.00
23303;BME280;11820;48.738;9.092;2023-07-31T04:11:09;96276.91;;;16.80;100.00
23303;BME280;11820;48.738;9.092;2023-07-31T04:13:34;96283.06;;;16.74;100.00
23303;BME280;11820;48.738;9.092;2023-07-31T04:15:59;96276.34;;;16.78;100.00
23303;BME280;11820;48.738;9.092;2023-07-31T04:18:25;96275.78;;;16.76;100.00
23303;BME280;11820;48.738;9.092;2023-07-31T04:20:51;96278.28;;;16.71;100.00
23303;BME280;11820;48.738;9.092;2023-07-31T04:23:16;96268.41;;;16.73;100.00
23303;BME280;11820;48.738;9.092;2023-07-31T04:25:41;96269.53;;;16.77;100.00
23303;BME280;11820;48.738;9.092;2023-07-31T04:28:07;96265.09;;;16.78;100.00
23303;BME280;11820;48.738;9.092;2023-07-31T04:30:33;96262.47;;;16.78;100.00
23303;BME280;11820;48.738;9.092;2023-07-31T04:32:58;96266.03;;;16.72;100.00
23303;BME280;11820;48.738;9.092;2023-07-31T04:35:23;96262.59;;;16.71;100.00
23303;BME280;11820;48.738;9.092;2023-07-31T04:37:49;96269.31;;;16.67;100.00
23303;BME280;11820;48.738;9.092;2023-07-31T04:40:15;96278.88;;;16.73;100.00
23303;BME280;11820;48.738;9.092;2023-07-31T04:42:41;96283.38;;;16.78;100.00
23303;BME280;11820;48.738;9.092;2023-07-31T04:45:08;96271.44;;;16.82;100.00
23303;BME280;11820;48.738;9.092;2023-07-31T04:47:33;96267.16;;;16.76;100.00
23303;BME280;11820;48.738;9.092;2023-07-31T04:49:59;96265.06;;;16.89;100.00
23303;BME280;11820;48.738;9.092;2023-07-31T04:52:24;96264.59;;;16.92;100.00
23303;BME280;11820;48.738;9.092;2023-07-31T04:54:49;96260.56;;;16.85;100.00
23303;BME280;11820;48.738;9.092;2023-07-31T04:57:15;96262.53;;;16.94;100.00
23303;BME280;11820;48.738;9.092;2023-07-31T04:59:40;96262.44;;;16.89;100.00
23303;BME280;11820;48.738;9.092;2023-07-31T05:02:07;96265.19;;;16.83;100.00
23303;BME280;11820;48.738;9.092;2023-07-31T05:04:33;96263.00;;;16.91;100.00
23303;BME280;11820;48.738;9.092;2023-07-31T05:06:58;96257.78;;;16.91;100.00
23303;BME280;11820;48.738;9.092;2023-07-31T05:09:23;96261.91;;;16.87;100.00
23303;BME280;11820;48.738;9.092;2023-07-31T05:11:49;96265.31;;;16.88;100.00
23303;BME280;11820;48.738;9.092;2023-07-31T05:14:14;96259.38;;;16.92;100.00
23303;BME280;11820;48.738;9.092;2023-07-31T05:16:41;96256.75;;;16.92;100.00
23303;BME280;11820;48.738;9.092;2023-07-31T05:19:06;96257.66;;;16.98;100.00
23303;BME280;11820;48.738;9.092;2023-07-31T05:21:31;96267.69;;;16.89;100.00
23303;BME280;11820;48.738;9.092;2023-07-31T05:23:57;96261.34;;;16.85;100.00
23303;BME280;11820;48.738;9.092;2023-07-31T05:26:22;96265.59;;;17.03;100.00
23303;BME280;11820;48.738;9.092;2023-07-31T05:28:47;96267.63;;;17.01;100.00
23303;BME280;11820;48.738;9.092;2023-07-31T05:31:13;96259.66;;;17.07;100.00
23303;BME280;11820;48.738;9.092;2023-07-31T05:33:38;96255.97;;;17.20;100.00
23303;BME280;11820;48.738;9.092;2023-07-31T05:36:03;96257.44;;;17.27;100.00
23303;BME280;11820;48.738;9.092;2023-07-31T05:38:29;96260.34;;;17.31;100.00
23303;BME280;11820;48.738;9.092;2023-07-31T05:40:54;96262.84;;;17.37;100.00
23303;BME280;11820;48.738;9.092;2023-07-31T05:43:20;96268.72;;;17.44;100.00
23303;BME280;11820;48.738;9.092;2023-07-31T05:45:45;96267.41;;;17.30;100.00
23303;BME280;11820;48.738;9.092;2023-07-31T05:48:10;96262.56;;;17.50;100.00
23303;BME280;11820;48.738;9.092;2023-07-31T05:50:36;96247.31;;;17.47;100.00
23303;BME280;11820;48.738;9.092;2023-07-31T05:53:04;96254.00;;;17.55;100.00
23303;BME280;11820;48.738;9.092;2023-07-31T05:55:29;96252.75;;;17.57;100.00
23303;BME280;11820;48.738;9.092;2023-07-31T05:57:54;96253.03;;;17.44;100.00
23303;BME280;11820;48.738;9.092;2023-07-31T06:00:20;96249.66;;;17.60;100.00
23303;BME280;11820;48.738;9.092;2023-07-31T06:02:47;96246.88;;;17.67;100.00
23303;BME280;11820;48.738;9.092;2023-07-31T06:05:12;96248.31;;;17.74;100.00
23303;BME280;11820;48.738;9.092;2023-07-31T06:07:38;96246.81;;;17.62;100.00
23303;BME280;11820;48.738;9.092;2023-07-31T06:10:03;96258.59;;;17.64;100.00
23303;BME280;11820;48.738;9.092;2023-07-31T06:12:34;96249.31;;;17.73;100.00
23303;BME280;11820;48.738;9.092;2023-07-31T06:15:00;96248.31;;;17.74;100.00
23303;BME280;11820;48.738;9.092;2023-07-31T06:17:26;96251.31;;;17.83;100.00
23303;BME280;11820;48.738;9.092;2023-07-31T06:19:51;96252.59;;;17.80;100.00
23303;BME280;11820;48.738;9.092;2023-07-31T06:22:17;96254.31;;;17.91;100.00
23303;BME280;11820;48.738;9.092;2023-07-31T06:24:42;96248.69;;;17.99;100.00
23303;BME280;11820;48.738;9.092;2023-07-31T06:27:08;96245.06;;;18.00;100.00
23303;BME280;11820;48.738;9.092;2023-07-31T06:29:33;96245.75;;;18.12;100.00
23303;BME280;11820;48.738;9.092;2023-07-31T06:31:58;96256.44;;;18.10;100.00
23303;BME280;11820;48.738;9.092;2023-07-31T06:34:24;96256.53;;;17.99;100.00
23303;BME280;11820;48.738;9.092;2023-07-31T06:36:49;96259.72;;;18.01;100.00
23303;BME280;11820;48.738;9.092;2023-07-31T06:39:15;96252.97;;;18.05;100.00
23303;BME280;11820;48.738;9.092;2023-07-31T06:41:40;96252.00;;;18.11;100.00
23303;BME280;11820;48.738;9.092;2023-07-31T06:44:05;96251.13;;;18.22;100.00
23303;BME280;11820;48.738;9.092;2023-07-31T06:46:31;96253.31;;;18.46;100.00
23303;BME280;11820;48.738;9.092;2023-07-31T06:48:56;96259.34;;;18.47;100.00
23303;BME280;11820;48.738;9.092;2023-07-31T06:51:21;96254.84;;;18.64;100.00
23303;BME280;11820;48.738;9.092;2023-07-31T06:53:46;96259.81;;;18.44;100.00
23303;BME280;11820;48.738;9.092;2023-07-31T06:56:12;96266.66;;;18.45;100.00
23303;BME280;11820;48.738;9.092;2023-07-31T06:58:38;96266.19;;;18.31;100.00
23303;BME280;11820;48.738;9.092;2023-07-31T07:01:03;96268.75;;;18.26;100.00
23303;BME280;11820;48.738;9.092;2023-07-31T07:03:29;96266.53;;;18.35;100.00
23303;BME280;11820;48.738;9.092;2023-07-31T07:05:54;96267.28;;;18.52;100.00
23303;BME280;11820;48.738;9.092;2023-07-31T07:08:19;96267.69;;;18.44;100.00
23303;BME280;11820;48.738;9.092;2023-07-31T07:10:45;96265.38;;;18.47;100.00
23303;BME280;11820;48.738;9.092;2023-07-31T07:13:10;96257.78;;;18.67;100.00
23303;BME280;11820;48.738;9.092;2023-07-31T07:15:37;96257.53;;;18.69;100.00
23303;BME280;11820;48.738;9.092;2023-07-31T07:18:03;96254.97;;;18.74;100.00
23303;BME280;11820;48.738;9.092;2023-07-31T07:20:28;96267.16;;;18.85;100.00
23303;BME280;11820;48.738;9.092;2023-07-31T07:22:54;96257.03;;;18.72;100.00
23303;BME280;11820;48.738;9.092;2023-07-31T07:25:19;96248.28;;;18.83;100.00
23303;BME280;11820;48.738;9.092;2023-07-31T07:27:44;96245.72;;;18.88;100.00
23303;BME280;11820;48.738;9.092;2023-07-31T07:30:10;96237.66;;;18.94;100.00
23303;BME280;11820;48.738;9.092;2023-07-31T07:32:35;96244.22;;;18.97;100.00
23303;BME280;11820;48.738;9.092;2023-07-31T07:35:00;96244.84;;;19.04;100.00
23303;BME280;11820;48.738;9.092;2023-07-31T07:37:26;96240.47;;;18.88;100.00
23303;BME280;11820;48.738;9.092;2023-07-31T07:39:51;96243.94;;;18.93;100.00
23303;BME280;11820;48.738;9.092;2023-07-31T07:42:16;96237.53;;;19.06;100.00
23303;BME280;11820;48.738;9.092;2023-07-31T07:44:41;96236.19;;;19.03;100.00
23303;BME280;11820;48.738;9.092;2023-07-31T07:47:07;96237.81;;;19.09;100.00
23303;BME280;11820;48.738;9.092;2023-07-31T07:49:33;96248.38;;;19.14;100.00
23303;BME280;11820;48.738;9.092;2023-07-31T07:51:59;96237.25;;;19.07;100.00
23303;BME280;11820;48.738;9.092;2023-07-31T07:54:25;96232.03;;;19.29;100.00
23303;BME280;11820;48.738;9.092;2023-07-31T07:56:50;96236.78;;;19.32;100.00
23303;BME280;11820;48.738;9.092;2023-07-31T07:59:15;96236.13;;;19.20;100.00
23303;BME280;11820;48.738;9.092;2023-07-31T08:01:41;96234.47;;;19.14;100.00
23303;BME280;11820;48.738;9.092;2023-07-31T08:04:06;96230.44;;;19.06;100.00
23303;BME280;11820;48.738;9.092;2023-07-31T08:06:31;96231.25;;;19.07;100.00
23303;BME280;11820;48.738;9.092;2023-07-31T08:08:57;96226.41;;;18.99;100.00
23303;BME280;11820;48.738;9.092;2023-07-31T08:11:22;96220.50;;;18.82;100.00
23303;BME280;11820;48.738;9.092;2023-07-31T08:13:49;96234.50;;;18.92;100.00
23303;BME280;11820;48.738;9.092;2023-07-31T08:16:14;96233.75;;;18.97;100.00
23303;BME280;11820;48.738;9.092;2023-07-31T08:18:39;96219.19;;;19.06;100.00
23303;BME280;11820;48.738;9.092;2023-07-31T08:21:05;96218.31;;;19.00;100.00
23303;BME280;11820;48.738;9.092;2023-07-31T08:23:31;96217.16;;;19.13;100.00
23303;BME280;11820;48.738;9.092;2023-07-31T08:25:56;96216.91;;;19.41;100.00
23303;BME280;11820;48.738;9.092;2023-07-31T08:28:22;96217.44;;;19.43;100.00
23303;BME280;11820;48.738;9.092;2023-07-31T08:30:47;96215.47;;;19.55;100.00
23303;BME280;11820;48.738;9.092;2023-07-31T08:33:13;96216.63;;;19.68;100.00
23303;BME280;11820;48.738;9.092;2023-07-31T08:35:38;96216.44;;;19.80;100.00
23303;BME280;11820;48.738;9.092;2023-07-31T08:38:03;96196.19;;;19.75;100.00
23303;BME280;11820;48.738;9.092;2023-07-31T08:40:29;96214.13;;;19.83;100.00
23303;BME280;11820;48.738;9.092;2023-07-31T08:42:55;96204.75;;;19.97;100.00
23303;BME280;11820;48.738;9.092;2023-07-31T08:45:27;96203.88;;;19.87;100.00
23303;BME280;11820;48.738;9.092;2023-07-31T08:47:53;96204.03;;;19.70;100.00
23303;BME280;11820;48.738;9.092;2023-07-31T08:50:20;96198.63;;;19.87;100.00
23303;BME280;11820;48.738;9.092;2023-07-31T08:52:46;96195.66;;;19.73;100.00
23303;BME280;11820;48.738;9.092;2023-07-31T08:55:12;96193.81;;;20.05;100.00
23303;BME280;11820;48.738;9.092;2023-07-31T08:57:38;96190.38;;;20.05;100.00
23303;BME280;11820;48.738;9.092;2023-07-31T09:00:05;96200.59;;;20.01;100.00
23303;BME280;11820;48.738;9.092;2023-07-31T09:05:06;96212.56;;;19.87;100.00
23303;BME280;11820;48.738;9.092;2023-07-31T09:07:34;96187.94;;;19.98;100.00
23303;BME280;11820;48.738;9.092;2023-07-31T09:10:00;96190.69;;;19.72;100.00
23303;BME280;11820;48.738;9.092;2023-07-31T09:12:25;96178.44;;;19.87;100.00
23303;BME280;11820;48.738;9.092;2023-07-31T09:14:50;96177.22;;;20.00;100.00
23303;BME280;11820;48.738;9.092;2023-07-31T09:17:31;96181.19;;;20.02;100.00
23303;BME280;11820;48.738;9.092;2023-07-31T09:19:57;96183.84;;;20.07;100.00
23303;BME280;11820;48.738;9.092;2023-07-31T09:22:34;96187.56;;;20.16;100.00
23303;BME280;11820;48.738;9.092;2023-07-31T09:25:26;96187.81;;;20.15;100.00
23303;BME280;11820;48.738;9.092;2023-07-31T09:28:07;96180.56;;;20.32;100.00
23303;BME280;11820;48.738;9.092;2023-07-31T09:30:50;96181.81;;;20.19;100.00
23303;BME280;11820;48.738;9.092;2023-07-31T09:33:16;96173.44;;;20.27;100.00
23303;BME280;11820;48.738;9.092;2023-07-31T09:35:42;96179.19;;;20.19;100.00
23303;BME280;11820;48.738;9.092;2023-07-31T09:38:12;96183.59;;;20.14;100.00
23303;BME280;11820;48.738;9.092;2023-07-31T09:40:39;96188.09;;;20.13;100.00
23303;BME280;11820;48.738;9.092;2023-07-31T09:43:23;96169.16;;;20.11;100.00
23303;BME280;11820;48.738;9.092;2023-07-31T09:45:55;96157.81;;;20.57;100.00
23303;BME280;11820;48.738;9.092;2023-07-31T09:48:23;96155.44;;;20.66;100.00
23303;BME280;11820;48.738;9.092;2023-07-31T09:50:51;96139.97;;;20.79;100.00
23303;BME280;11820;48.738;9.092;2023-07-31T09:53:17;96140.50;;;20.71;100.00
23303;BME280;11820;48.738;9.092;2023-07-31T09:55:42;96132.16;;;20.94;100.00
23303;BME280;11820;48.738;9.092;2023-07-31T09:58:10;96137.34;;;20.74;100.00
23303;BME280;11820;48.738;9.092;2023-07-31T10:00:36;96130.75;;;20.67;100.00
23303;BME280;11820;48.738;9.092;2023-07-31T10:03:06;96139.47;;;20.82;100.00
23303;BME280;11820;48.738;9.092;2023-07-31T10:05:58;96144.00;;;20.97;100.00
23303;BME280;11820;48.738;9.092;2023-07-31T10:08:30;96106.91;;;20.98;100.00
23303;BME280;11820;48.738;9.092;2023-07-31T10:11:01;96118.94;;;20.79;100.00
23303;BME280;11820;48.738;9.092;2023-07-31T10:13:28;96109.00;;;21.01;100.00
23303;BME280;11820;48.738;9.092;2023-07-31T10:15:54;96114.81;;;21.23;100.00
23303;BME280;11820;48.738;9.092;2023-07-31T10:18:23;96099.81;;;21.34;100.00
23303;BME280;11820;48.738;9.092;2023-07-31T10:20:49;96116.69;;;21.23;100.00
23303;BME280;11820;48.738;9.092;2023-07-31T10:23:15;96099.53;;;21.00;100.00
23303;BME280;11820;48.738;9.092;2023-07-31T10:25:42;96102.19;;;21.20;100.00
23303;BME280;11820;48.738;9.092;2023-07-31T10:28:08;96095.88;;;21.41;100.00
23303;BME280;11820;48.738;9.092;2023-07-31T10:30:34;96098.75;;;21.35;100.00
23303;BME280;11820;48.738;9.092;2023-07-31T10:33:03;96095.88;;;21.41;100.00
23303;BME280;11820;48.738;9.092;2023-07-31T10:35:28;96084.00;;;21.68;100.00
23303;BME280;11820;48.738;9.092;2023-07-31T10:37:53;96079.78;;;21.77;100.00
23303;BME280;11820;48.738;9.092;2023-07-31T10:40:24;96086.28;;;22.05;100.00
23303;BME280;11820;48.738;9.092;2023-07-31T10:42:55;96092.44;;;21.75;100.00
23303;BME280;11820;48.738;9.092;2023-07-31T10:48:06;96087.09;;;22.00;100.00
23303;BME280;11820;48.738;9.092;2023-07-31T10:50:37;96090.19;;;22.12;100.00
23303;BME280;11820;48.738;9.092;2023-07-31T10:53:03;96096.84;;;21.95;100.00
23303;BME280;11820;48.738;9.092;2023-07-31T10:55:42;96090.09;;;22.47;100.00
23303;BME280;11820;48.738;9.092;2023-07-31T10:58:09;96085.84;;;22.51;100.00
23303;BME280;11820;48.738;9.092;2023-07-31T11:00:42;96090.38;;;22.31;100.00
23303;BME280;11820;48.738;9.092;2023-07-31T11:03:10;96071.66;;;22.32;100.00
23303;BME280;11820;48.738;9.092;2023-07-31T11:08:27;96089.34;;;22.27;100.00
23303;BME280;11820;48.738;9.092;2023-07-31T11:13:40;96081.53;;;22.65;100.00
23303;BME280;11820;48.738;9.092;2023-07-31T11:16:06;96078.91;;;22.65;100.00
23303;BME280;11820;48.738;9.092;2023-07-31T11:18:32;96063.72;;;22.47;100.00
23303;BME280;11820;48.738;9.092;2023-07-31T11:20:57;96072.47;;;22.38;100.00
23303;BME280;11820;48.738;9.092;2023-07-31T11:23:23;96081.22;;;22.23;100.00
23303;BME280;11820;48.738;9.092;2023-07-31T11:25:49;96080.81;;;21.81;100.00
23303;BME280;11820;48.738;9.092;2023-07-31T11:28:16;96072.13;;;21.81;100.00
23303;BME280;11820;48.738;9.092;2023-07-31T11:30:43;96077.34;;;21.96;100.00
23303;BME280;11820;48.738;9.092;2023-07-31T11:33:11;96074.69;;;22.11;100.00
23303;BME280;11820;48.738;9.092;2023-07-31T11:35:45;96069.44;;;22.01;100.00
23303;BME280;11820;48.738;9.092;2023-07-31T11:38:25;96070.00;;;21.93;100.00
23303;BME280;11820;48.738;9.092;2023-07-31T11:40:52;96071.00;;;22.02;100.00
23303;BME280;11820;48.738;9.092;2023-07-31T11:43:18;96073.72;;;21.72;100.00
23303;BME280;11820;48.738;9.092;2023-07-31T11:45:52;96066.38;;;21.54;100.00
23303;BME280;11820;48.738;9.092;2023-07-31T11:48:19;96057.97;;;21.57;100.00
23303;BME280;11820;48.738;9.092;2023-07-31T11:50:45;96065.31;;;21.60;100.00
23303;BME280;11820;48.738;9.092;2023-07-31T11:53:12;96061.38;;;21.57;100.00
23303;BME280;11820;48.738;9.092;2023-07-31T11:55:38;96050.06;;;21.52;100.00
23303;BME280;11820;48.738;9.092;2023-07-31T11:58:06;96042.16;;;21.57;100.00
23303;BME280;11820;48.738;9.092;2023-07-31T12:00:32;96034.81;;;21.44;100.00
23303;BME280;11820;48.738;9.092;2023-07-31T12:02:59;96025.56;;;21.56;100.00
23303;BME280;11820;48.738;9.092;2023-07-31T12:05:25;96022.69;;;21.48;100.00
23303;BME280;11820;48.738;9.092;2023-07-31T12:07:53;96025.81;;;21.70;100.00
23303;BME280;11820;48.738;9.092;2023-07-31T12:10:23;96023.38;;;21.88;100.00
23303;BME280;11820;48.738;9.092;2023-07-31T12:15:39;96011.59;;;21.71;100.00
23303;BME280;11820;48.738;9.092;2023-07-31T12:18:07;96015.31;;;21.60;100.00
23303;BME280;11820;48.738;9.092;2023-07-31T12:20:32;96025.84;;;21.50;100.00
23303;BME280;11820;48.738;9.092;2023-07-31T12:22:58;96015.84;;;21.52;100.00
23303;BME280;11820;48.738;9.092;2023-07-31T12:25:32;96026.16;;;21.29;100.00
23303;BME280;11820;48.738;9.092;2023-07-31T12:28:04;96014.06;;;21.23;100.00
23303;BME280;11820;48.738;9.092;2023-07-31T12:30:32;96019.06;;;21.14;100.00
23303;BME280;11820;48.738;9.092;2023-07-31T12:33:03;96021.19;;;21.17;100.00
23303;BME280;11820;48.738;9.092;2023-07-31T12:35:35;96015.91;;;21.17;100.00
23303;BME280;11820;48.738;9.092;2023-07-31T12:38:03;96006.47;;;21.06;100.00
23303;BME280;11820;48.738;9.092;2023-07-31T12:40:29;96009.34;;;21.10;100.00
23303;BME280;11820;48.738;9.092;2023-07-31T12:42:54;96007.50;;;21.00;100.00
23303;BME280;11820;48.738;9.092;2023-07-31T12:45:19;95997.25;;;20.99;100.00
23303;BME280;11820;48.738;9.092;2023-07-31T12:47:46;95991.47;;;21.07;100.00
23303;BME280;11820;48.738;9.092;2023-07-31T12:50:11;95993.25;;;21.36;100.00
23303;BME280;11820;48.738;9.092;2023-07-31T12:52:36;95987.66;;;21.62;100.00
23303;BME280;11820;48.738;9.092;2023-07-31T12:55:02;95969.97;;;21.78;100.00
23303;BME280;11820;48.738;9.092;2023-07-31T12:57:27;95979.41;;;21.89;100.00
23303;BME280;11820;48.738;9.092;2023-07-31T12:59:53;95967.00;;;21.89;100.00
23303;BME280;11820;48.738;9.092;2023-07-31T13:02:18;95965.06;;;22.15;100.00
23303;BME280;11820;48.738;9.092;2023-07-31T13:04:43;95961.97;;;22.46;100.00
23303;BME280;11820;48.738;9.092;2023-07-31T13:07:09;95961.75;;;22.76;100.00